createdAt,value
2022-09-05T00:01:28.194Z,18.20
2022-09-05T00:04:21.333Z,18.24
2022-09-05T00:06:57.080Z,18.17
2022-09-05T00:09:44.734Z,18.21
2022-09-05T00:12:13.734Z,18.19
2022-09-05T00:15:17.291Z,18.17
2022-09-05T00:19:37.040Z,18.17
2022-09-05T00:24:21.928Z,18.10
2022-09-05T00:24:26.772Z,18.12
2022-09-05T00:26:56.714Z,18.08
2022-09-05T00:31:08.755Z,18.05
2022-09-05T00:32:55.530Z,17.98
2022-09-05T00:35:39.412Z,18.01
2022-09-05T00:38:16.576Z,17.98
2022-09-05T00:40:48.044Z,17.95
2022-09-05T00:43:20.885Z,17.95
2022-09-05T00:45:53.642Z,17.96
2022-09-05T00:48:29.429Z,17.95
2022-09-05T00:51:10.066Z,17.86
2022-09-05T00:53:45.774Z,17.85
2022-09-05T00:56:46.496Z,17.86
2022-09-05T00:59:58.519Z,17.87
2022-09-05T01:02:52.445Z,17.80
2022-09-05T01:05:32.549Z,17.74
2022-09-05T01:08:18.407Z,17.75
2022-09-05T01:10:53.340Z,17.75
2022-09-05T01:13:32.881Z,17.78
2022-09-05T01:16:10.683Z,17.74
2022-09-05T01:18:52.415Z,17.71
2022-09-05T01:21:55.120Z,17.71
2022-09-05T01:24:54.082Z,17.60
2022-09-05T01:29:13.363Z,17.61
2022-09-05T01:30:44.174Z,17.58
2022-09-05T01:33:20.556Z,17.60
2022-09-05T01:36:12.349Z,17.61
2022-09-05T01:39:16.537Z,17.54
2022-09-05T01:41:46.081Z,17.59
2022-09-05T01:44:28.939Z,17.52
2022-09-05T01:47:07.639Z,17.54
2022-09-05T01:49:56.138Z,17.55
2022-09-05T01:52:57.399Z,17.50
2022-09-05T01:56:03.926Z,17.37
2022-09-05T01:58:34.286Z,17.39
2022-09-05T02:01:26.623Z,17.38
2022-09-05T02:04:26.167Z,17.41
2022-09-05T02:07:19.901Z,17.40
2022-09-05T02:10:07.993Z,17.31
2022-09-05T02:12:44.784Z,17.36
2022-09-05T02:15:40.616Z,17.34
2022-09-05T02:18:19.352Z,17.27
2022-09-05T02:20:53.423Z,17.32
2022-09-05T02:23:41.898Z,17.23
2022-09-05T02:26:18.624Z,17.27
2022-09-05T02:28:55.992Z,17.24
2022-09-05T02:31:32.678Z,17.26
2022-09-05T02:34:12.292Z,17.19
2022-09-05T02:36:46.063Z,17.18
2022-09-05T02:45:03.179Z,17.21
2022-09-05T02:45:12.662Z,17.12
2022-09-05T02:45:26.899Z,17.08
2022-09-05T02:48:14.806Z,17.14
2022-09-05T02:57:23.893Z,17.08
2022-09-05T02:57:33.106Z,17.09
2022-09-05T02:57:36.697Z,17.03
2022-09-05T02:59:52.271Z,17.07
2022-09-05T03:02:28.303Z,17.08
2022-09-05T03:05:04.723Z,17.05
2022-09-05T03:07:53.642Z,17.04
2022-09-05T03:10:53.157Z,17.03
2022-09-05T03:13:54.283Z,16.99
2022-09-05T03:16:58.583Z,16.99
2022-09-05T03:20:05.778Z,16.96
2022-09-05T03:23:16.126Z,16.89
2022-09-05T03:26:09.526Z,16.93
2022-09-05T03:29:15.516Z,16.91
2022-09-05T03:32:17.748Z,16.85
2022-09-05T03:35:22.644Z,16.80
2022-09-05T03:38:17.492Z,16.87
2022-09-05T03:40:58.490Z,16.84
2022-09-05T03:43:59.405Z,16.85
2022-09-05T03:46:46.194Z,16.86
2022-09-05T03:53:58.478Z,16.87
2022-09-05T03:57:10.481Z,16.88
2022-09-05T03:57:14.133Z,16.85
2022-09-05T03:58:57.833Z,16.86
2022-09-05T04:03:00.053Z,16.93
2022-09-05T04:08:11.330Z,16.96
2022-09-05T04:08:27.566Z,16.95
2022-09-05T04:10:28.109Z,17.02
2022-09-05T04:13:02.304Z,17.00
2022-09-05T04:15:37.050Z,16.98
2022-09-05T04:18:13.146Z,16.93
2022-09-05T04:20:49.003Z,17.01
2022-09-05T04:23:27.659Z,17.03
2022-09-05T04:26:11.971Z,17.00
2022-09-05T04:29:02.714Z,17.03
2022-09-05T04:31:43.047Z,17.02
2022-09-05T04:34:26.785Z,17.00
2022-09-05T04:37:03.759Z,16.93
2022-09-05T04:39:33.224Z,16.99
2022-09-05T04:42:17.220Z,16.94
2022-09-05T04:44:51.191Z,16.98
2022-09-05T04:47:29.164Z,17.06
2022-09-05T04:50:02.350Z,17.09
2022-09-05T04:52:50.497Z,17.08
2022-09-05T04:55:22.577Z,17.06
2022-09-05T04:57:56.354Z,16.98
2022-09-05T05:05:58.627Z,17.13
2022-09-05T05:06:14.076Z,17.06
2022-09-05T05:06:44.072Z,17.09
2022-09-05T05:09:07.515Z,17.13
2022-09-05T05:17:54.816Z,17.10
2022-09-05T05:17:56.381Z,17.12
2022-09-05T05:18:14.682Z,17.13
2022-09-05T05:20:39.808Z,17.06
2022-09-05T05:23:12.108Z,17.22
2022-09-05T05:25:47.509Z,17.18
2022-09-05T05:28:24.686Z,17.22
2022-09-05T05:30:58.282Z,17.23
2022-09-05T05:33:33.689Z,17.19
2022-09-05T05:36:03.481Z,17.26
2022-09-05T05:38:39.476Z,17.39
2022-09-05T05:41:16.699Z,17.44
2022-09-05T05:43:46.756Z,17.60
2022-09-05T05:46:28.398Z,17.66
2022-09-05T05:49:09.554Z,17.66
2022-09-05T05:52:01.248Z,17.75
2022-09-05T05:54:38.384Z,17.83
2022-09-05T05:57:53.329Z,17.88
2022-09-05T06:00:27.983Z,17.96
2022-09-05T06:03:43.558Z,17.75
2022-09-05T06:06:47.948Z,17.78
2022-09-05T06:14:50.772Z,17.85
2022-09-05T06:14:54.847Z,17.82
2022-09-05T06:16:24.706Z,17.95
2022-09-05T06:19:13.899Z,17.97
2022-09-05T06:22:14.968Z,18.07
2022-09-05T06:25:17.713Z,18.07
2022-09-05T06:28:18.056Z,18.07
2022-09-05T06:31:30.514Z,17.96
2022-09-05T06:34:00.907Z,18.03
2022-09-05T06:36:54.270Z,18.24
2022-09-05T06:39:43.788Z,18.31
2022-09-05T06:42:42.178Z,18.39
2022-09-05T06:45:32.698Z,18.53
2022-09-05T06:48:14.567Z,18.47
2022-09-05T06:52:01.079Z,18.56
2022-09-05T06:55:03.542Z,18.72
2022-09-05T06:57:59.954Z,18.79
2022-09-05T07:00:33.722Z,19.01
2022-09-05T07:03:20.707Z,19.26
2022-09-05T07:05:57.370Z,19.47
2022-09-05T07:08:37.184Z,19.67
2022-09-05T07:11:16.944Z,19.84
2022-09-05T07:13:57.035Z,19.94
2022-09-05T07:16:38.958Z,20.03
2022-09-05T07:19:27.053Z,20.12
2022-09-05T07:22:45.904Z,20.27
2022-09-05T07:25:08.771Z,20.42
2022-09-05T07:28:27.078Z,20.53
2022-09-05T07:30:32.054Z,20.83
2022-09-05T07:33:03.296Z,20.86
2022-09-05T07:35:42.001Z,21.03
2022-09-05T07:38:16.160Z,21.10
2022-09-05T07:40:51.685Z,21.23
2022-09-05T07:43:26.742Z,21.32
2022-09-05T07:46:11.548Z,21.18
2022-09-05T07:48:44.312Z,21.32
2022-09-05T07:56:49.315Z,21.30
2022-09-05T07:56:58.900Z,21.49
2022-09-05T07:59:56.521Z,21.49
2022-09-05T08:02:24.665Z,21.48
2022-09-05T08:04:52.596Z,21.61
2022-09-05T08:07:48.273Z,21.60
2022-09-05T08:10:15.963Z,21.41
2022-09-05T08:13:22.981Z,21.52
2022-09-05T08:16:09.984Z,21.76
2022-09-05T08:18:38.598Z,21.83
2022-09-05T08:21:13.421Z,21.97
2022-09-05T08:23:52.690Z,22.06
2022-09-05T08:26:32.516Z,22.19
2022-09-05T08:29:09.481Z,22.34
2022-09-05T08:31:43.593Z,22.43
2022-09-05T08:34:18.539Z,22.75
2022-09-05T08:37:00.777Z,22.95
2022-09-05T08:39:29.616Z,23.07
2022-09-05T08:42:28.254Z,23.26
2022-09-05T08:46:40.903Z,23.28
2022-09-05T08:48:14.954Z,23.05
2022-09-05T08:51:12.649Z,22.97
2022-09-05T08:54:01.269Z,22.82
2022-09-05T08:56:35.291Z,22.79
2022-09-05T08:59:32.111Z,22.71
2022-09-05T09:02:48.085Z,22.77
2022-09-05T09:06:12.254Z,23.03
2022-09-05T09:08:29.548Z,23.21
2022-09-05T09:11:04.293Z,23.37
2022-09-05T09:13:52.266Z,23.49
2022-09-05T09:16:30.857Z,23.48
2022-09-05T09:19:13.322Z,23.62
2022-09-05T09:21:52.741Z,23.62
2022-09-05T09:24:34.353Z,23.69
2022-09-05T09:27:06.054Z,23.61
2022-09-05T09:29:39.088Z,23.65
2022-09-05T09:32:13.271Z,23.73
2022-09-05T09:34:52.863Z,23.85
2022-09-05T09:37:59.316Z,23.75
2022-09-05T09:41:10.996Z,23.75
2022-09-05T09:44:01.372Z,23.91
2022-09-05T09:46:40.298Z,23.87
2022-09-05T09:49:27.377Z,23.99
2022-09-05T09:52:32.948Z,24.04
2022-09-05T09:55:46.338Z,24.05
2022-09-05T09:58:31.810Z,24.10
2022-09-05T10:01:36.739Z,24.02
2022-09-05T10:10:34.053Z,23.96
2022-09-05T10:10:56.268Z,24.11
2022-09-05T10:14:49.168Z,24.38
2022-09-05T10:17:45.898Z,24.39
2022-09-05T10:20:43.575Z,24.48
2022-09-05T10:23:44.258Z,24.58
2022-09-05T10:26:54.013Z,24.63
2022-09-05T10:29:44.514Z,24.70
2022-09-05T10:35:07.967Z,24.78
2022-09-05T10:35:22.484Z,24.79
2022-09-05T10:37:57.845Z,24.84
2022-09-05T10:40:29.356Z,24.87
2022-09-05T10:43:13.311Z,24.90
2022-09-05T10:45:49.046Z,24.92
2022-09-05T10:48:24.317Z,24.93
2022-09-05T10:51:00.966Z,24.89
2022-09-05T10:53:43.961Z,24.89
2022-09-05T10:56:15.496Z,24.98
2022-09-05T11:02:18.693Z,25.11
2022-09-05T11:02:29.326Z,25.14
2022-09-05T11:04:50.442Z,25.15
2022-09-05T11:07:27.812Z,25.22
2022-09-05T11:10:08.075Z,25.24
2022-09-05T11:12:59.404Z,25.31
2022-09-05T11:15:35.712Z,25.33
2022-09-05T11:18:06.256Z,25.52
2022-09-05T11:20:53.768Z,25.63
2022-09-05T11:23:26.888Z,25.72
2022-09-05T11:26:01.975Z,25.69
2022-09-05T11:28:53.746Z,25.72
2022-09-05T11:32:04.264Z,25.68
2022-09-05T11:40:00.116Z,25.64
2022-09-05T11:40:08.285Z,25.72
2022-09-05T11:41:19.935Z,25.63
2022-09-05T11:44:26.254Z,25.69
2022-09-05T11:47:14.285Z,25.77
2022-09-05T11:50:39.216Z,25.81
2022-09-05T11:53:42.102Z,25.80
2022-09-05T11:56:49.491Z,25.73
2022-09-05T12:00:10.745Z,25.88
2022-09-05T12:03:11.755Z,25.92
2022-09-05T12:06:29.670Z,26.00
2022-09-05T12:09:04.359Z,26.04
2022-09-05T12:11:55.132Z,26.04
2022-09-05T12:14:36.595Z,26.02
2022-09-05T12:17:16.973Z,26.08
2022-09-05T12:19:58.172Z,26.13
2022-09-05T12:22:30.360Z,26.26
2022-09-05T12:27:38.831Z,26.26
2022-09-05T12:29:27.408Z,26.31
2022-09-05T12:32:36.459Z,26.25
2022-09-05T12:36:02.926Z,26.24
2022-09-05T12:40:43.570Z,26.14
2022-09-05T12:40:58.218Z,26.04
2022-09-05T12:43:39.339Z,25.90
2022-09-05T12:45:50.289Z,25.82
2022-09-05T12:48:39.120Z,25.88
2022-09-05T12:51:11.869Z,26.06
2022-09-05T12:53:50.682Z,26.04
2022-09-05T12:57:50.344Z,25.87
2022-09-05T13:03:04.625Z,25.77
2022-09-05T13:03:13.208Z,25.71
2022-09-05T13:05:13.670Z,25.69
2022-09-05T13:07:44.590Z,25.73
2022-09-05T13:11:11.471Z,25.89
2022-09-05T13:14:57.457Z,26.20
2022-09-05T13:16:03.391Z,26.18
2022-09-05T13:18:39.453Z,26.22
2022-09-05T13:21:12.151Z,26.23
2022-09-05T13:23:48.661Z,26.25
2022-09-05T13:26:25.364Z,26.36
2022-09-05T13:29:09.810Z,26.42
2022-09-05T13:38:01.507Z,26.52
2022-09-05T13:38:12.570Z,26.52
2022-09-05T13:41:00.126Z,26.60
2022-09-05T13:43:36.454Z,26.65
2022-09-05T13:46:15.569Z,26.68
2022-09-05T13:51:43.898Z,26.68
2022-09-05T13:54:37.335Z,26.66
2022-09-05T13:57:37.013Z,26.75
2022-09-05T14:00:39.213Z,26.72
2022-09-05T14:03:38.380Z,26.71
2022-09-05T14:06:47.326Z,26.79
2022-09-05T14:09:35.471Z,26.76
2022-09-05T14:12:11.509Z,26.78
2022-09-05T14:17:57.650Z,26.79
2022-09-05T14:20:49.615Z,26.87
2022-09-05T14:23:21.851Z,26.88
2022-09-05T14:25:54.693Z,26.91
2022-09-05T14:28:28.018Z,26.97
2022-09-05T14:33:19.192Z,27.07
2022-09-05T14:37:41.990Z,27.09
2022-09-05T14:37:52.815Z,27.16
2022-09-05T14:40:49.848Z,27.29
2022-09-05T14:43:40.335Z,27.27
2022-09-05T14:46:28.176Z,27.18
2022-09-05T14:49:21.584Z,27.20
2022-09-05T14:51:52.318Z,27.31
2022-09-05T15:02:11.171Z,27.19
2022-09-05T15:02:53.744Z,27.33
2022-09-05T15:03:04.962Z,27.39
2022-09-05T15:05:41.004Z,27.41
2022-09-05T15:08:52.564Z,27.43
2022-09-05T15:12:20.854Z,27.40
2022-09-05T15:13:58.104Z,27.42
2022-09-05T15:16:26.992Z,27.52
2022-09-05T15:18:56.273Z,27.61
2022-09-05T15:21:34.106Z,27.70
2022-09-05T15:24:14.848Z,27.61
2022-09-05T15:26:55.813Z,27.43
2022-09-05T15:29:26.195Z,27.38
2022-09-05T15:31:58.954Z,27.42
2022-09-05T15:34:38.656Z,27.26
2022-09-05T15:37:26.085Z,27.33
2022-09-05T15:40:22.678Z,27.49
2022-09-05T15:42:59.291Z,27.74
2022-09-05T15:45:29.760Z,27.92
2022-09-05T15:48:09.391Z,28.06
2022-09-05T15:50:45.849Z,27.94
2022-09-05T15:53:24.867Z,27.68
2022-09-05T15:56:00.216Z,27.36
2022-09-05T15:58:53.950Z,27.10
2022-09-05T16:01:52.446Z,27.01
2022-09-05T16:10:34.880Z,27.10
2022-09-05T16:10:46.928Z,27.34
2022-09-05T16:10:49.692Z,27.38
2022-09-05T16:12:50.923Z,27.44
2022-09-05T16:18:39.916Z,27.66
2022-09-05T16:23:18.802Z,27.93
2022-09-05T16:23:30.259Z,27.84
2022-09-05T16:24:07.183Z,28.01
2022-09-05T16:26:42.819Z,28.20
2022-09-05T16:29:25.296Z,27.86
2022-09-05T16:32:09.513Z,27.50
2022-09-05T16:34:43.802Z,27.24
2022-09-05T16:37:16.175Z,27.02
2022-09-05T16:39:49.913Z,26.75
2022-09-05T16:42:24.027Z,26.55
2022-09-05T16:45:22.901Z,26.35
2022-09-05T16:48:05.096Z,26.08
2022-09-05T16:50:40.988Z,26.05
2022-09-05T16:53:30.543Z,25.97
2022-09-05T16:56:03.599Z,26.01
2022-09-05T16:58:34.802Z,26.01
2022-09-05T17:01:20.987Z,26.18
2022-09-05T17:03:55.613Z,26.56
2022-09-05T17:06:30.184Z,26.65
2022-09-05T17:09:13.550Z,26.60
2022-09-05T17:12:00.197Z,26.44
2022-09-05T17:14:35.266Z,26.18
2022-09-05T17:17:20.371Z,26.13
2022-09-05T17:20:07.254Z,26.05
2022-09-05T17:28:13.682Z,26.02
2022-09-05T17:29:27.754Z,25.72
2022-09-05T17:29:36.535Z,25.91
2022-09-05T17:31:57.054Z,25.66
2022-09-05T17:34:54.440Z,25.48
2022-09-05T17:38:11.566Z,25.41
2022-09-05T17:41:16.134Z,25.34
2022-09-05T17:43:47.459Z,25.22
2022-09-05T17:46:21.389Z,25.09
2022-09-05T17:49:19.719Z,25.00
2022-09-05T17:52:31.276Z,24.88
2022-09-05T17:55:00.951Z,24.80
2022-09-05T17:57:41.015Z,24.76
2022-09-05T18:00:48.665Z,24.68
2022-09-05T18:04:16.000Z,24.61
2022-09-05T18:07:00.626Z,24.51
2022-09-05T18:10:14.557Z,24.39
2022-09-05T18:13:13.284Z,24.36
2022-09-05T18:16:10.564Z,24.23
2022-09-05T18:19:32.293Z,24.19
2022-09-05T18:21:48.424Z,24.07
2022-09-05T18:24:33.370Z,24.01
2022-09-05T18:27:35.076Z,23.92
2022-09-05T18:30:09.437Z,23.90
2022-09-05T18:32:51.945Z,23.81
2022-09-05T18:35:36.714Z,23.75
2022-09-05T18:38:51.532Z,23.63
2022-09-05T18:41:22.256Z,23.64
2022-09-05T18:44:13.212Z,23.56
2022-09-05T18:46:47.791Z,23.46
2022-09-05T18:50:21.794Z,23.38
2022-09-05T18:52:17.223Z,23.30
2022-09-05T18:56:10.848Z,23.32
2022-09-05T18:57:49.958Z,23.31
2022-09-05T19:00:35.021Z,23.29
2022-09-05T19:03:24.957Z,23.20
2022-09-05T19:06:34.679Z,23.21
2022-09-05T19:08:49.752Z,23.16
2022-09-05T19:11:28.910Z,23.15
2022-09-05T19:14:25.637Z,23.06
2022-09-05T19:16:50.783Z,23.02
2022-09-05T19:19:24.948Z,22.99
2022-09-05T19:22:45.211Z,22.94
2022-09-05T19:24:46.566Z,22.85
2022-09-05T19:28:55.531Z,22.80
2022-09-05T19:36:58.630Z,22.67
2022-09-05T19:37:05.137Z,22.65
2022-09-05T19:37:13.896Z,22.78
2022-09-05T19:41:52.762Z,22.54
2022-09-05T19:47:25.947Z,22.59
2022-09-05T19:47:44.709Z,22.49
2022-09-05T19:47:57.536Z,22.43
2022-09-05T19:50:21.453Z,22.32
2022-09-05T19:53:02.605Z,22.33
2022-09-05T19:55:36.422Z,22.31
2022-09-05T19:58:19.237Z,22.22
2022-09-05T20:01:08.205Z,22.18
2022-09-05T20:03:42.592Z,22.16
2022-09-05T20:06:29.981Z,22.15
2022-09-05T20:09:14.241Z,22.06
2022-09-05T20:11:46.969Z,22.06
2022-09-05T20:14:24.245Z,22.01
2022-09-05T20:16:55.880Z,22.01
2022-09-05T20:19:28.809Z,21.89
2022-09-05T20:21:59.736Z,21.91
2022-09-05T20:24:49.195Z,21.84
2022-09-05T20:27:17.506Z,21.83
2022-09-05T20:29:54.857Z,21.78
2022-09-05T20:32:30.493Z,21.76
2022-09-05T20:42:33.546Z,21.75
2022-09-05T20:43:24.418Z,21.62
2022-09-05T20:43:36.452Z,21.63
2022-09-05T20:43:58.959Z,21.60
2022-09-05T20:50:34.100Z,21.57
2022-09-05T20:54:14.019Z,21.52
2022-09-05T20:54:28.946Z,21.52
2022-09-05T20:55:38.007Z,21.44
2022-09-05T20:58:10.293Z,21.42
2022-09-05T21:00:39.690Z,21.41
2022-09-05T21:03:09.176Z,21.44
2022-09-05T21:05:40.003Z,21.42
2022-09-05T21:08:35.038Z,21.39
2022-09-05T21:11:04.798Z,21.35
2022-09-05T21:13:36.879Z,21.31
2022-09-05T21:16:22.866Z,21.20
2022-09-05T21:18:52.443Z,21.27
2022-09-05T21:21:28.327Z,21.28
2022-09-05T21:24:16.950Z,21.23
2022-09-05T21:26:50.583Z,21.14
2022-09-05T21:29:28.773Z,21.14
2022-09-05T21:32:08.536Z,21.16
2022-09-05T21:34:44.932Z,21.10
2022-09-05T21:37:14.698Z,21.12
2022-09-05T21:39:58.523Z,21.08
2022-09-05T21:44:32.177Z,21.03
2022-09-05T21:47:38.727Z,21.01
2022-09-05T21:48:14.877Z,20.99
2022-09-05T21:50:46.267Z,20.91
2022-09-05T21:57:53.681Z,20.95
2022-09-05T21:59:19.660Z,20.94
2022-09-05T21:59:25.237Z,20.90
2022-09-05T22:02:05.320Z,20.84
2022-09-05T22:04:37.164Z,20.85
2022-09-05T22:07:13.745Z,20.83
2022-09-05T22:09:41.548Z,20.80
2022-09-05T22:12:17.435Z,20.76
2022-09-05T22:15:00.916Z,20.73
2022-09-05T22:17:48.026Z,20.72
2022-09-05T22:20:17.934Z,20.65
2022-09-05T22:22:56.477Z,20.68
2022-09-05T22:25:28.321Z,20.63
2022-09-05T22:28:00.774Z,20.62
2022-09-05T22:30:28.585Z,20.64
2022-09-05T22:32:57.785Z,20.62
2022-09-05T22:35:28.503Z,20.64
2022-09-05T22:38:01.437Z,20.60
2022-09-05T22:40:31.072Z,20.60
2022-09-05T22:43:00.674Z,20.56
2022-09-05T22:45:29.729Z,20.57
2022-09-05T22:47:59.295Z,20.59
2022-09-05T22:50:27.595Z,20.57
2022-09-05T22:52:55.322Z,20.56
2022-09-05T22:55:23.154Z,20.41
2022-09-05T22:57:50.973Z,20.49
2022-09-05T23:00:18.989Z,20.45
2022-09-05T23:02:51.619Z,20.43
2022-09-05T23:05:21.668Z,20.48
2022-09-05T23:07:49.535Z,20.42
2022-09-05T23:10:17.910Z,20.39
2022-09-05T23:12:46.059Z,20.33
2022-09-05T23:15:14.077Z,20.37
2022-09-05T23:17:42.019Z,20.36
2022-09-05T23:20:11.452Z,20.32
2022-09-05T23:22:42.925Z,20.34
2022-09-05T23:25:11.102Z,20.31
2022-09-05T23:27:39.636Z,20.27
2022-09-05T23:30:09.489Z,20.25
2022-09-05T23:32:37.505Z,20.20
2022-09-05T23:35:05.914Z,20.24
2022-09-05T23:37:33.772Z,20.25
2022-09-05T23:40:03.408Z,20.17
2022-09-05T23:42:31.252Z,20.22
2022-09-05T23:44:59.025Z,20.23
2022-09-05T23:47:28.980Z,20.17
2022-09-05T23:49:57.434Z,20.15
2022-09-05T23:52:25.202Z,20.09
2022-09-05T23:54:52.973Z,20.07
2022-09-05T23:57:24.344Z,20.06
2022-09-05T23:59:52.880Z,19.98
